Flight Track Log - Related Links

Times and Time Zones

All times are in EDT time to prevent confusion due to time zone crossing. See the SWA2278 flight status page for this flight to view local times or setup timezone preferences in your user account.

Time Position Orientation Groundspeed Altitude Reporting Facility
EDT Latitude Longitude Course Direction KTS MPH feet Rate Location/Type
Wed 01:56:45 PM 36.0500 -86.6333 154° Southeast 233 268 4,500  Level Nashville TRACON
Wed 01:57:51 PM 36.0333 -86.5333 102° East 303 349 8,000 2,885 Climbing Nashville TRACON
Wed 01:58:56 PM 36.0653 -86.4336 68° East 339 390 10,800 2,736 Climbing Memphis Center
Wed 01:59:56 PM 36.1075 -86.3211 65° Northeast 332 382 13,700 2,900 Climbing Memphis Center
Wed 02:00:56 PM 36.1514 -86.2031 65° Northeast 356 410 16,600 2,850 Climbing Memphis Center
Wed 02:01:56 PM 36.1975 -86.0825 65° Northeast 375 432 19,400 2,450 Climbing Memphis Center
Wed 02:02:56 PM 36.2514 -85.9589 62° Northeast 397 457 21,500 2,165 Climbing Memphis Center
Wed 02:04:34 PM 36.3367 -85.7672 61° Northeast 427 491 25,100 1,950 Climbing Indianapolis Center
Wed 02:05:36 PM 36.3983 -85.6383 59° Northeast 433 498 26,700 1,645 Climbing Indianapolis Center
Wed 02:06:38 PM 36.4756 -85.4756 59° Northeast 455 524 28,500 1,597 Climbing Indianapolis Center
Wed 02:07:40 PM 36.5406 -85.3386 59° Northeast 457 526 30,000 1,403 Climbing Indianapolis Center
Wed 02:08:42 PM 36.6061 -85.1958 60° Northeast 467 537 31,400 1,463 Climbing Indianapolis Center
Wed 02:09:43 PM 36.6567 -85.0411 68° East 479 551 33,000 1,707 Climbing Indianapolis Center
Wed 02:10:45 PM 36.7033 -84.8919 69° East 465 535 34,900 1,355 Climbing Indianapolis Center
Wed 02:11:47 PM 36.7492 -84.7392 69° East 467 537 35,800 919 Climbing Indianapolis Center
Wed 02:12:49 PM 36.7956 -84.5867 69° East 468 539 36,800 537 Climbing Indianapolis Center
Wed 02:13:50 PM 36.8464 -84.4167 69° East 469 540 36,900 49 Climbing Indianapolis Center
Wed 02:14:52 PM 36.8919 -84.2658 69° East 460 529 36,900  Level Indianapolis Center
Wed 02:15:54 PM 36.9375 -84.1153 69° East 457 526 36,900  Level Indianapolis Center
Wed 02:16:56 PM 36.9822 -83.9633 70° East 461 531 36,900  Level Indianapolis Center
Wed 02:17:57 PM 37.0269 -83.8136 69° East 458 527 36,900  Level Indianapolis Center
Wed 02:18:59 PM 37.0719 -83.6611 70° East 462 532 36,900  Level Indianapolis Center
Wed 02:20:01 PM 37.1081 -83.4778 76° East 465 535 36,900  Level Indianapolis Center
Wed 02:21:03 PM 37.1339 -83.3183 78° East 464 534 36,900  Level Indianapolis Center
Wed 02:22:04 PM 37.1606 -83.1617 78° East 459 528 36,900  Level Indianapolis Center
Wed 02:23:06 PM 37.1917 -83.0083 76° East 454 522 36,900  Level Indianapolis Center
Wed 02:24:08 PM 37.2397 -82.8597 68° East 454 522 36,900  Level Indianapolis Center
Wed 02:25:10 PM 37.2858 -82.7097 69° East 456 525 36,900  Level Indianapolis Center
Wed 02:26:11 PM 37.3325 -82.5603 69° East 458 527 36,900  Level Indianapolis Center
Wed 02:27:13 PM 37.3775 -82.4094 69° East 459 528 36,900  Level Indianapolis Center
Wed 02:28:15 PM 37.4308 -82.2336 69° East 459 528 36,900  Level Indianapolis Center
Wed 02:29:17 PM 37.4764 -82.0836 69° East 459 528 36,900  Level Indianapolis Center
Wed 02:30:18 PM 37.5214 -81.9311 70° East 462 532 36,900  Level Indianapolis Center
Wed 02:31:20 PM 37.5672 -81.7783 69° East 465 535 36,900  Level Indianapolis Center
Wed 02:32:22 PM 37.6122 -81.6253 70° East 466 536 36,900  Level Indianapolis Center
Wed 02:33:24 PM 37.6625 -81.4528 70° East 470 541 36,900  Level Indianapolis Center
Wed 02:34:25 PM 37.7050 -81.3047 70° East 466 536 36,900  Level Indianapolis Center
Wed 02:35:27 PM 37.7483 -81.1536 70° East 469 540 36,900  Level Indianapolis Center
Wed 02:36:19 PM 37.7878 -81.0131 70° East 461 531 36,900  Level Washington Center
Wed 02:37:19 PM 37.8344 -80.8561 69° East 461 531 36,900  Level Washington Center
Wed 02:38:19 PM 37.8786 -80.7064 69° East 461 531 36,900  Level Washington Center
Wed 02:39:19 PM 37.9206 -80.5486 71° East 461 531 36,900  Level Washington Center
Wed 02:40:19 PM 37.9617 -80.4119 69° East 461 531 36,900  Level Washington Center
Wed 02:41:19 PM 38.0053 -80.2592 70° East 461 531 36,900  Level Washington Center
Wed 02:42:19 PM 38.0489 -80.1036 70° East 461 531 36,900  Level Washington Center
Wed 02:43:19 PM 38.0919 -79.9506 70° East 461 531 36,900  Level Washington Center
Wed 02:44:19 PM 38.1397 -79.7789 70° East 461 531 36,900  Level Washington Center
Wed 02:45:19 PM 38.1828 -79.6228 71° East 461 531 36,900 -350 Level Washington Center
Wed 02:46:19 PM 38.2256 -79.4667 71° East 461 531 36,200 -2,050 Descending Washington Center
Wed 02:47:19 PM 38.2681 -79.3075 71° East 461 531 32,800 -3,400 Descending Washington Center
Wed 02:48:19 PM 38.3103 -79.1508 71° East 461 531 29,400 -2,550 Descending Washington Center
Wed 02:49:19 PM 38.3475 -79.0150 71° East 461 531 27,700 -1,200 Descending Washington Center
Wed 02:50:19 PM 38.3853 -78.8578 73° East 431 496 27,000 -350 Descending Washington Center
Wed 02:51:19 PM 38.4225 -78.7161 71° East 415 478 27,000 -50 Level Washington Center
Wed 02:52:19 PM 38.4594 -78.5772 71° East 439 505 26,900 -50 Descending Washington Center
Wed 02:53:19 PM 38.4961 -78.4381 71° East 451 519 26,900 -300 Level Washington Center
Wed 02:54:19 PM 38.5419 -78.2542 72° East 451 519 26,300 -1,600 Descending Washington Center
Wed 02:55:19 PM 38.5761 -78.1197 72° East 451 519 23,700 -2,550 Descending Washington Center
Wed 02:56:19 PM 38.6169 -77.9592 72° East 437 503 21,200 -2,350 Descending Washington Center
Wed 02:57:19 PM 38.6425 -77.8297 76° East 422 486 19,000 -1,150 Descending Washington Center
Wed 02:58:19 PM 38.6536 -77.6653 85° East 422 486 18,900 -350 Descending Washington Center
Wed 02:59:19 PM 38.6622 -77.5300 85° East 422 486 18,300 -1,450 Descending Washington Center
Wed 03:00:19 PM 38.6686 -77.3864 87° East 416 479 16,000 -1,350 Descending Washington Center
Wed 03:01:19 PM 38.6769 -77.2403 86° East 410 472 15,600 -1,400 Descending Washington Center
Wed 03:02:19 PM 38.6850 -77.0969 86° East 404 465 13,200 -2,250 Descending Washington Center
Wed 03:03:19 PM 38.6931 -76.9561 86° East 398 458 11,100 -1,655 Descending Washington Center
Wed 03:04:15 PM 38.7000 -76.8167 86° East 357 411 10,000 -1,034 Descending Potomac TRACON
Wed 03:05:15 PM 38.7167 -76.7167 78° East 330 380 9,100 -1,096 Descending Potomac TRACON
Wed 03:06:10 PM 38.7667 -76.6167 57° Northeast 314 361 7,900 -1,409 Descending Potomac TRACON
Wed 03:07:10 PM 38.8000 -76.5333 63° Northeast 296 341 6,400 -1,650 Descending Potomac TRACON
Wed 03:08:10 PM 38.8833 -76.5333 360° North 286 329 4,600 -1,250 Descending Potomac TRACON
Wed 03:09:10 PM 38.9500 -76.5667 339° North 265 305 3,900 -1,050 Descending Potomac TRACON
Wed 03:10:10 PM 39.0333 -76.5833 351° North 264 304 2,500 -1,190 Descending Potomac TRACON
Wed 03:11:16 PM 39.1000 -76.6167 339° North 248 285 1,400 -905 Descending Potomac TRACON
Wed 03:12:16 PM 39.1500 -76.6500 333° Northwest 174 200 600 -800 Descending Potomac TRACON
Wed 03:14:00 PM 39.1667 -76.6667 339° North  Level FlightAware Approximate
Wed 03:21:00 PM 39.1754 -76.6683 339° North  Level Estimated
Wed 03:22:00 PM 39.1754 -76.6683 339° North  Level Estimated
Wed 03:23:00 PM 39.1754 -76.6683 339° North  Level Estimated

Login

Don't have an account? Register now (free) for customized features, flight alerts, and more!